Time;durP1;ratioP1;P1;durP2;ratioP2;P2;SDS_P1;SDS_P2;PMS_P1;PMS_P2;Temp;Humidity;BMP_temperature;BMP_pressure;BME280_temperature;BME280_humidity;BME280_pressure;Samples;Min_cycle;Max_cycle;Signal;HPM_P1;HPM_P2
2023/05/02 00:01:36;;;;;;;6.63;6.03;;;15.50;97.10;;;;;;6231611;28;20487;-61
2023/05/02 00:04:39;;;;;;;7.07;6.47;;;15.50;97.30;;;;;;6237548;28;20510;-61
2023/05/02 00:07:42;;;;;;;6.60;6.00;;;15.40;97.50;;;;;;6235938;28;20881;-61
2023/05/02 00:10:45;;;;;;;6.70;6.20;;;15.40;97.80;;;;;;6240362;28;20983;-61
2023/05/02 00:13:49;;;;;;;7.67;6.93;;;15.40;97.80;;;;;;6237047;28;21030;-61
2023/05/02 00:16:53;;;;;;;7.30;6.70;;;15.40;98.00;;;;;;6249763;28;20494;-61
2023/05/02 00:19:56;;;;;;;6.10;5.50;;;15.30;98.10;;;;;;6250254;28;20497;-61
2023/05/02 00:23:00;;;;;;;7.20;6.70;;;15.30;98.20;;;;;;6250116;28;20486;-61
2023/05/02 00:26:03;;;;;;;6.60;6.10;;;15.30;98.20;;;;;;6249059;28;20485;-61
2023/05/02 00:29:06;;;;;;;7.33;6.73;;;15.30;98.30;;;;;;6249499;28;20491;-61
2023/05/02 00:32:11;;;;;;;6.93;6.33;;;15.30;98.50;;;;;;6249728;28;20471;-61
2023/05/02 00:35:14;;;;;;;7.73;7.03;;;15.20;98.60;;;;;;6249448;28;20482;-61
2023/05/02 00:38:17;;;;;;;7.20;6.60;;;15.20;98.60;;;;;;6249493;28;20482;-60
2023/05/02 00:41:20;;;;;;;6.83;6.17;;;15.10;98.70;;;;;;6249239;28;20479;-60
2023/05/02 00:44:23;;;;;;;7.03;6.43;;;15.10;98.90;;;;;;6249442;28;20940;-60
2023/05/02 00:47:28;;;;;;;6.50;6.00;;;15.00;99.00;;;;;;6249087;28;20974;-60
2023/05/02 00:50:33;;;;;;;9.30;6.43;;;15.00;99.10;;;;;;6249604;28;20924;-60
2023/05/02 00:53:37;;;;;;;6.63;6.03;;;15.10;99.20;;;;;;6249262;28;20466;-60
2023/05/02 00:56:41;;;;;;;6.93;6.33;;;15.00;99.50;;;;;;6249283;28;20482;-60
2023/05/02 00:59:44;;;;;;;6.37;5.77;;;15.00;99.30;;;;;;6249256;28;20482;-60
2023/05/02 01:02:54;;;;;;;7.50;6.80;;;15.00;99.40;;;;;;6248541;28;20485;-60
2023/05/02 01:06:08;;;;;;;6.63;6.03;;;15.00;99.30;;;;;;6249372;28;20467;-60
2023/05/02 01:09:22;;;;;;;6.80;6.10;;;14.90;99.30;;;;;;6249648;28;20450;-61
2023/05/02 01:12:28;;;;;;;7.77;7.17;;;14.90;99.50;;;;;;6238403;28;20472;-60
2023/05/02 01:15:34;;;;;;;7.27;6.57;;;14.90;99.80;;;;;;6224569;28;20491;-60
2023/05/02 01:18:42;;;;;;;6.77;6.17;;;14.90;99.80;;;;;;6224401;28;20467;-60
2023/05/02 01:21:46;;;;;;;6.13;5.73;;;14.90;99.90;;;;;;6224669;28;20483;-60
2023/05/02 01:25:02;;;;;;;6.83;6.23;;;14.80;99.90;;;;;;6224454;28;20491;-59
2023/05/02 01:28:14;;;;;;;7.50;6.80;;;14.80;99.90;;;;;;6224683;28;20483;-60
2023/05/02 01:31:19;;;;;;;7.13;6.43;;;14.80;99.90;;;;;;6224423;28;20483;-60
2023/05/02 01:34:23;;;;;;;6.00;5.50;;;14.80;99.90;;;;;;6224659;28;20828;-59
2023/05/02 01:37:30;;;;;;;7.77;7.07;;;14.80;99.90;;;;;;6225958;28;20487;-60
2023/05/02 01:40:35;;;;;;;8.13;7.33;;;14.80;99.90;;;;;;6229966;28;20794;-60
2023/05/02 01:43:40;;;;;;;6.67;6.17;;;14.80;99.90;;;;;;6229335;28;20467;-60
2023/05/02 01:46:45;;;;;;;7.07;6.37;;;14.80;99.90;;;;;;6229199;28;20483;-60
2023/05/02 01:49:49;;;;;;;6.77;6.03;;;14.70;99.90;;;;;;6229423;28;20521;-60
2023/05/02 01:52:53;;;;;;;6.40;5.77;;;14.70;99.90;;;;;;6229392;28;20471;-60
2023/05/02 01:55:58;;;;;;;7.80;6.93;;;14.70;99.90;;;;;;6228973;28;20855;-59
2023/05/02 01:59:05;;;;;;;7.53;6.83;;;14.70;99.90;;;;;;6228772;28;20766;-60
2023/05/02 02:02:12;;;;;;;7.30;6.60;;;14.70;99.90;;;;;;6228797;28;20518;-61
2023/05/02 02:05:17;;;;;;;6.40;5.90;;;14.80;99.90;;;;;;6228349;28;20986;-61
2023/05/02 02:08:20;;;;;;;6.77;6.23;;;14.70;99.90;;;;;;6228738;28;20831;-61
2023/05/02 02:11:29;;;;;;;6.20;5.60;;;14.70;99.90;;;;;;6228403;28;20499;-61
2023/05/02 02:14:36;;;;;;;7.43;6.83;;;14.60;99.90;;;;;;6228619;28;20479;-61
2023/05/02 02:17:46;;;;;;;7.23;6.60;;;14.70;99.90;;;;;;6227893;28;20784;-61
2023/05/02 02:20:50;;;;;;;8.97;6.87;;;14.60;99.90;;;;;;6228171;28;20479;-61
2023/05/02 02:23:57;;;;;;;8.23;7.43;;;14.60;99.90;;;;;;6203934;28;20475;-61
2023/05/02 02:27:00;;;;;;;13.13;7.03;;;14.60;99.90;;;;;;6227877;28;20940;-61
2023/05/02 02:30:04;;;;;;;7.93;7.23;;;14.60;99.90;;;;;;6227815;28;20967;-61
2023/05/02 02:33:08;;;;;;;7.13;6.50;;;14.60;99.90;;;;;;6227963;28;20460;-61
2023/05/02 02:36:15;;;;;;;6.77;6.27;;;14.60;99.90;;;;;;6228031;28;20471;-61
2023/05/02 02:39:28;;;;;;;9.13;6.60;;;14.70;99.90;;;;;;6227987;28;20479;-61
2023/05/02 02:42:38;;;;;;;6.13;5.60;;;14.70;99.90;;;;;;6228104;28;20471;-61
2023/05/02 02:45:49;;;;;;;7.50;6.17;;;14.70;99.90;;;;;;6228057;28;20472;-60
2023/05/02 02:49:08;;;;;;;6.53;6.03;;;14.70;99.90;;;;;;6226791;28;20480;-61
2023/05/02 02:52:17;;;;;;;7.13;6.60;;;14.70;99.90;;;;;;6227613;28;20479;-61
2023/05/02 02:55:31;;;;;;;7.17;6.47;;;14.70;99.90;;;;;;6227371;28;20476;-60
2023/05/02 02:58:43;;;;;;;6.60;6.10;;;14.70;99.90;;;;;;6226886;28;20818;-60
2023/05/02 03:01:53;;;;;;;8.13;7.40;;;14.70;99.90;;;;;;6227129;28;20483;-60
2023/05/02 03:04:58;;;;;;;7.43;6.83;;;14.80;99.90;;;;;;6226911;28;20657;-61
2023/05/02 03:08:01;;;;;;;7.37;6.47;;;14.70;99.90;;;;;;6226993;28;20472;-60
2023/05/02 03:11:04;;;;;;;7.83;7.10;;;14.70;99.90;;;;;;6227261;28;20471;-60
2023/05/02 03:14:08;;;;;;;8.37;7.50;;;14.70;99.90;;;;;;6226826;28;20475;-60
2023/05/02 03:17:11;;;;;;;7.60;6.90;;;14.70;99.90;;;;;;6227254;28;20506;-60
2023/05/02 03:20:15;;;;;;;7.67;6.67;;;14.80;99.90;;;;;;6226918;28;20468;-60
2023/05/02 03:23:18;;;;;;;8.00;7.23;;;14.80;99.90;;;;;;6226785;28;20836;-60
2023/05/02 03:26:21;;;;;;;7.70;7.07;;;14.80;99.90;;;;;;6226637;28;20494;-60
2023/05/02 03:29:25;;;;;;;7.43;6.80;;;14.80;99.90;;;;;;6226381;28;20487;-61
2023/05/02 03:32:28;;;;;;;7.90;7.10;;;14.90;99.90;;;;;;6226678;28;20479;-60
2023/05/02 03:35:32;;;;;;;8.27;7.57;;;14.90;99.90;;;;;;6226610;28;20825;-60
2023/05/02 03:38:36;;;;;;;8.23;7.20;;;14.80;99.90;;;;;;6226348;28;20554;-60
2023/05/02 03:41:39;;;;;;;7.77;6.60;;;14.90;99.90;;;;;;6226518;28;20486;-60
2023/05/02 03:44:42;;;;;;;10.00;8.83;;;14.90;99.90;;;;;;6226347;28;20483;-60
2023/05/02 03:47:45;;;;;;;8.10;7.40;;;14.90;99.90;;;;;;6226081;28;20963;-60
2023/05/02 03:50:50;;;;;;;8.77;7.87;;;14.90;99.90;;;;;;6226171;28;20514;-60
2023/05/02 03:53:53;;;;;;;8.53;7.63;;;14.90;99.90;;;;;;6225646;28;20459;-60
2023/05/02 03:56:56;;;;;;;7.87;7.13;;;14.90;99.90;;;;;;6226410;28;20970;-60
2023/05/02 04:00:00;;;;;;;6.83;6.30;;;14.90;99.90;;;;;;6225408;28;20483;-60
2023/05/02 04:03:03;;;;;;;7.63;6.90;;;14.90;99.90;;;;;;6236782;28;20451;-60
2023/05/02 04:06:08;;;;;;;9.17;7.20;;;14.90;99.90;;;;;;6233742;28;20940;-60
2023/05/02 04:09:11;;;;;;;7.07;6.43;;;14.90;99.90;;;;;;6235177;28;20436;-60
2023/05/02 04:12:16;;;;;;;7.13;6.57;;;14.90;99.90;;;;;;6236042;28;20958;-60
2023/05/02 04:15:19;;;;;;;6.20;5.60;;;14.80;99.90;;;;;;6238750;28;20605;-60
2023/05/02 04:18:22;;;;;;;6.73;6.17;;;14.80;99.90;;;;;;6236394;28;20460;-60
2023/05/02 04:21:27;;;;;;;7.03;6.43;;;14.80;99.90;;;;;;6238147;28;20467;-61
2023/05/02 04:24:30;;;;;;;8.20;7.50;;;14.70;99.90;;;;;;6234878;28;20479;-61
2023/05/02 04:27:33;;;;;;;7.63;6.83;;;14.80;99.90;;;;;;6238320;28;20527;-61
2023/05/02 04:30:36;;;;;;;7.87;7.07;;;14.70;99.90;;;;;;6236378;28;20965;-60
2023/05/02 04:33:39;;;;;;;8.23;7.50;;;14.70;99.90;;;;;;6238196;28;20952;-60
2023/05/02 04:36:45;;;;;;;8.63;7.87;;;14.80;99.90;;;;;;6236308;28;20475;-61
2023/05/02 04:39:48;;;;;;;7.90;7.30;;;14.70;99.90;;;;;;6243902;28;20525;-60
2023/05/02 04:42:52;;;;;;;8.00;7.40;;;14.70;99.90;;;;;;6249736;28;20967;-60
2023/05/02 04:45:57;;;;;;;7.97;7.27;;;14.80;99.90;;;;;;6249889;28;20799;-61
2023/05/02 04:49:01;;;;;;;8.10;7.33;;;14.70;99.90;;;;;;6249680;28;20609;-60
2023/05/02 04:52:05;;;;;;;7.80;7.03;;;14.80;99.90;;;;;;6249686;28;20477;-61
2023/05/02 04:55:09;;;;;;;7.60;6.90;;;14.80;99.90;;;;;;6249608;28;20482;-61
2023/05/02 04:58:12;;;;;;;7.73;7.13;;;14.80;99.90;;;;;;6249387;28;20477;-60
2023/05/02 05:01:15;;;;;;;8.87;7.83;;;14.70;99.90;;;;;;6249591;28;20475;-60
2023/05/02 05:04:19;;;;;;;8.80;8.00;;;14.70;99.90;;;;;;6249302;28;20947;-60
2023/05/02 05:07:24;;;;;;;9.90;8.20;;;14.70;99.90;;;;;;6249240;28;20920;-61
2023/05/02 05:10:27;;;;;;;10.10;8.23;;;14.70;99.90;;;;;;6249530;28;20487;-60
2023/05/02 05:13:30;;;;;;;8.77;8.07;;;14.70;99.90;;;;;;6252666;28;20486;-60
2023/05/02 05:16:33;;;;;;;8.80;8.10;;;14.80;99.90;;;;;;6254308;28;20962;-60
2023/05/02 05:19:37;;;;;;;8.97;7.37;;;14.80;99.90;;;;;;6254153;28;20562;-60
2023/05/02 05:22:42;;;;;;;8.67;7.87;;;14.90;99.90;;;;;;6254333;28;20467;-60
2023/05/02 05:25:45;;;;;;;8.53;7.83;;;15.00;99.90;;;;;;6254024;28;21191;-60
2023/05/02 05:28:49;;;;;;;8.43;7.70;;;15.00;99.90;;;;;;6253446;28;20463;-61
2023/05/02 05:31:52;;;;;;;8.40;7.70;;;15.00;99.90;;;;;;6254074;28;20982;-60
2023/05/02 05:34:55;;;;;;;10.03;9.10;;;15.00;99.90;;;;;;6253972;28;20475;-60
2023/05/02 05:38:00;;;;;;;8.83;8.03;;;15.00;99.90;;;;;;6253726;28;20466;-60
2023/05/02 05:41:04;;;;;;;10.33;7.03;;;15.00;99.90;;;;;;6253699;28;20964;-61
2023/05/02 05:44:07;;;;;;;8.93;8.23;;;15.00;99.90;;;;;;6253727;28;20475;-61
2023/05/02 05:47:10;;;;;;;8.23;7.27;;;15.00;99.90;;;;;;6253778;28;20741;-60
2023/05/02 05:50:13;;;;;;;9.07;8.20;;;15.00;99.90;;;;;;6253599;28;20783;-60
2023/05/02 05:53:18;;;;;;;8.70;7.90;;;15.00;99.90;;;;;;6253722;28;20877;-60
2023/05/02 05:56:22;;;;;;;9.80;8.83;;;15.00;99.90;;;;;;6253282;28;20479;-60
2023/05/02 05:59:26;;;;;;;8.17;7.57;;;15.10;99.90;;;;;;6253492;28;20783;-61
2023/05/02 06:02:29;;;;;;;8.80;8.00;;;15.20;99.90;;;;;;6253012;28;20485;-61
2023/05/02 06:05:33;;;;;;;10.77;8.20;;;15.20;99.90;;;;;;6252942;28;20480;-61
2023/05/02 06:08:38;;;;;;;9.60;8.37;;;15.20;99.90;;;;;;6243747;28;20575;-61
2023/05/02 06:11:41;;;;;;;9.83;7.90;;;15.20;99.90;;;;;;6252718;28;21080;-61
2023/05/02 06:14:44;;;;;;;8.30;7.60;;;15.30;99.90;;;;;;6252438;28;20489;-60
2023/05/02 06:17:47;;;;;;;10.27;9.17;;;15.30;99.90;;;;;;6252728;28;20565;-60
2023/05/02 06:20:50;;;;;;;11.93;7.80;;;15.30;99.90;;;;;;6252929;28;20486;-60
2023/05/02 06:23:55;;;;;;;9.10;8.23;;;15.30;99.90;;;;;;6252730;28;20843;-61
2023/05/02 06:26:59;;;;;;;11.30;8.77;;;15.30;99.90;;;;;;6252555;28;20459;-61
2023/05/02 06:30:02;;;;;;;8.93;8.10;;;15.40;99.90;;;;;;6252250;28;20814;-61
2023/05/02 06:33:06;;;;;;;9.67;8.83;;;15.40;99.90;;;;;;6252581;28;20450;-60
2023/05/02 06:36:09;;;;;;;12.20;10.23;;;15.40;99.90;;;;;;6252236;28;20793;-61
2023/05/02 06:39:14;;;;;;;10.97;9.67;;;15.40;99.90;;;;;;6252488;28;20486;-60
2023/05/02 06:42:17;;;;;;;8.87;8.07;;;15.40;99.90;;;;;;6252906;28;20474;-61
2023/05/02 06:45:20;;;;;;;11.40;9.30;;;15.40;99.90;;;;;;6252582;28;20462;-61
2023/05/02 06:48:23;;;;;;;10.20;9.20;;;15.30;99.90;;;;;;6252131;28;20463;-61
2023/05/02 06:51:27;;;;;;;10.50;9.60;;;15.30;99.90;;;;;;6252063;28;20471;-62
2023/05/02 06:54:31;;;;;;;9.07;8.27;;;15.20;99.90;;;;;;6251818;28;20545;-60
2023/05/02 06:57:34;;;;;;;10.07;9.07;;;15.20;99.90;;;;;;6251506;28;20467;-60
2023/05/02 07:00:37;;;;;;;10.77;9.87;;;15.30;99.90;;;;;;6251974;28;20482;-61
2023/05/02 07:03:41;;;;;;;11.00;9.93;;;15.40;99.90;;;;;;6251649;28;21131;-60
2023/05/02 07:06:44;;;;;;;10.03;9.00;;;15.40;99.90;;;;;;6251759;28;20987;-60
2023/05/02 07:09:48;;;;;;;12.77;8.60;;;15.50;99.90;;;;;;6246992;28;20556;-60
2023/05/02 07:12:51;;;;;;;10.47;9.33;;;15.50;99.90;;;;;;6251800;28;20489;-60
2023/05/02 07:15:55;;;;;;;10.07;9.07;;;15.50;99.90;;;;;;6251388;28;20818;-60
2023/05/02 07:18:59;;;;;;;10.00;9.00;;;15.70;99.90;;;;;;6251449;28;20474;-59
2023/05/02 07:22:02;;;;;;;9.20;8.40;;;15.80;99.90;;;;;;6251608;28;20463;-59
2023/05/02 07:25:07;;;;;;;11.70;9.90;;;15.70;99.90;;;;;;6251196;28;20509;-59
2023/05/02 07:28:10;;;;;;;10.60;9.70;;;15.70;99.90;;;;;;6251465;28;20475;-60
2023/05/02 07:31:13;;;;;;;9.43;8.37;;;15.80;99.90;;;;;;6250747;28;20545;-60
2023/05/02 07:34:18;;;;;;;9.17;8.17;;;15.80;99.90;;;;;;6250864;28;20494;-60
2023/05/02 07:37:22;;;;;;;9.97;9.10;;;15.80;99.90;;;;;;6234741;28;20475;-60
2023/05/02 07:40:27;;;;;;;10.30;9.20;;;15.80;99.90;;;;;;6228586;28;20987;-60
2023/05/02 07:43:31;;;;;;;9.83;8.70;;;15.90;99.90;;;;;;6239258;28;20472;-60
2023/05/02 07:46:34;;;;;;;11.17;10.07;;;15.90;99.90;;;;;;6238609;28;20463;-60
2023/05/02 07:49:40;;;;;;;9.57;8.60;;;15.90;99.90;;;;;;6237671;28;20472;-60
2023/05/02 07:52:43;;;;;;;8.87;7.97;;;16.00;99.90;;;;;;6237473;28;20475;-60
2023/05/02 07:55:48;;;;;;;9.90;9.00;;;16.30;99.90;;;;;;6239391;28;20490;-60
2023/05/02 07:58:51;;;;;;;7.60;7.00;;;16.60;99.90;;;;;;6250681;28;20477;-60
2023/05/02 08:01:54;;;;;;;8.80;7.90;;;16.80;99.90;;;;;;6250927;28;20927;-60
2023/05/02 08:04:57;;;;;;;8.37;7.67;;;16.90;99.90;;;;;;6250511;28;20479;-60
2023/05/02 08:08:01;;;;;;;8.73;7.73;;;16.90;99.90;;;;;;6250712;28;20550;-60
2023/05/02 08:11:06;;;;;;;7.73;7.03;;;16.80;99.90;;;;;;6249819;28;20467;-60
2023/05/02 08:14:09;;;;;;;7.87;7.07;;;16.70;99.90;;;;;;6245831;28;20471;-60
2023/05/02 08:17:12;;;;;;;10.83;8.10;;;16.60;99.90;;;;;;6249858;28;21258;-62
2023/05/02 08:20:15;;;;;;;7.00;6.40;;;16.60;99.90;;;;;;6249732;28;20486;-60
2023/05/02 08:23:18;;;;;;;7.60;6.90;;;16.60;99.90;;;;;;6249484;28;20486;-62
2023/05/02 08:26:23;;;;;;;6.97;6.27;;;16.60;99.90;;;;;;6248822;28;20490;-62
2023/05/02 08:29:26;;;;;;;7.83;7.13;;;16.60;99.90;;;;;;6247434;28;20483;-61
2023/05/02 08:32:29;;;;;;;6.87;6.17;;;16.70;99.90;;;;;;6248327;28;20524;-61
2023/05/02 08:35:33;;;;;;;6.93;6.37;;;16.80;99.90;;;;;;6248146;28;20486;-60
2023/05/02 08:38:36;;;;;;;6.03;5.43;;;17.00;99.90;;;;;;6247231;28;20858;-61
2023/05/02 08:41:40;;;;;;;6.50;6.00;;;17.40;99.90;;;;;;6248059;28;20803;-62
2023/05/02 08:44:43;;;;;;;6.00;5.50;;;17.60;99.90;;;;;;6248887;28;20491;-61
2023/05/02 08:47:48;;;;;;;5.80;5.30;;;17.70;99.90;;;;;;6248385;28;20782;-61
2023/05/02 08:50:52;;;;;;;5.40;4.90;;;18.10;99.90;;;;;;6249237;28;20275;-62
2023/05/02 08:53:57;;;;;;;5.80;5.30;;;18.70;99.80;;;;;;6250238;28;20232;-62
2023/05/02 08:57:04;;;;;;;4.57;4.27;;;19.20;99.00;;;;;;6249327;28;20246;-63
2023/05/02 09:00:08;;;;;;;6.10;5.50;;;19.60;96.90;;;;;;6249360;28;20200;-60
2023/05/02 09:03:21;;;;;;;5.73;5.23;;;19.60;96.50;;;;;;6249323;28;20212;-60
2023/05/02 09:06:28;;;;;;;5.33;4.83;;;19.50;96.60;;;;;;6249484;28;20238;-59
2023/05/02 09:09:34;;;;;;;4.60;4.20;;;19.50;96.40;;;;;;6248461;28;20282;-59
2023/05/02 09:12:38;;;;;;;6.03;4.30;;;19.50;95.90;;;;;;6249508;28;20242;-60
2023/05/02 09:15:42;;;;;;;6.03;4.57;;;19.40;95.90;;;;;;6248854;28;20243;-59
2023/05/02 09:18:46;;;;;;;5.00;4.70;;;19.10;95.60;;;;;;6239904;28;20278;-59
2023/05/02 09:21:50;;;;;;;5.33;4.90;;;18.80;96.00;;;;;;6248785;28;20266;-59
2023/05/02 09:24:54;;;;;;;6.57;4.77;;;18.60;96.20;;;;;;6233016;28;20225;-58
2023/05/02 09:28:00;;;;;;;5.30;4.90;;;18.50;96.70;;;;;;6224230;28;20534;-58
2023/05/02 09:31:07;;;;;;;4.10;3.80;;;18.50;96.70;;;;;;6224396;28;20244;-58
2023/05/02 09:34:12;;;;;;;4.60;4.20;;;18.50;96.40;;;;;;6224246;28;20244;-58
2023/05/02 09:37:34;;;;;;;3.80;3.50;;;18.50;96.10;;;;;;6224819;28;20233;-58
2023/05/02 09:40:38;;;;;;;5.50;5.00;;;18.50;96.20;;;;;;6224012;28;20568;-59
2023/05/02 09:43:42;;;;;;;4.27;3.97;;;18.50;96.20;;;;;;6224226;28;20225;-59
2023/05/02 09:46:47;;;;;;;3.40;3.10;;;18.60;96.30;;;;;;6235361;28;20240;-60
2023/05/02 09:49:50;;;;;;;4.50;3.60;;;18.80;95.40;;;;;;6248635;28;20684;-59
2023/05/02 09:53:01;;;;;;;6.30;4.33;;;18.90;95.30;;;;;;6248533;28;20233;-61
2023/05/02 09:56:05;;;;;;;3.60;3.30;;;18.90;95.20;;;;;;6248445;28;20236;-59
2023/05/02 09:59:17;;;;;;;5.80;3.03;;;18.90;94.70;;;;;;6250708;28;20711;-59
2023/05/02 10:02:21;;;;;;;5.33;3.23;;;18.80;94.70;;;;;;6253173;28;20664;-59
2023/05/02 10:05:25;;;;;;;5.20;3.60;;;18.80;95.00;;;;;;6252987;28;20239;-59
2023/05/02 10:08:29;;;;;;;4.03;3.53;;;18.80;94.40;;;;;;6252668;28;20242;-59
2023/05/02 10:11:33;;;;;;;3.90;3.50;;;18.90;94.40;;;;;;6252738;28;20224;-60
2023/05/02 10:14:40;;;;;;;3.40;3.10;;;19.10;94.50;;;;;;6252967;28;20236;-59
2023/05/02 10:17:48;;;;;;;4.40;4.10;;;19.20;94.40;;;;;;6244393;28;20665;-59
2023/05/02 10:20:57;;;;;;;3.70;3.40;;;19.30;93.70;;;;;;6239668;28;20229;-60
2023/05/02 10:24:02;;;;;;;4.20;3.90;;;19.10;93.50;;;;;;6239809;28;20231;-59
2023/05/02 10:27:05;;;;;;;3.30;3.00;;;19.10;93.90;;;;;;6243779;28;20235;-59
2023/05/02 10:30:12;;;;;;;4.23;3.60;;;19.10;93.90;;;;;;6252300;28;20236;-59
2023/05/02 10:33:17;;;;;;;3.90;3.27;;;19.00;94.10;;;;;;6252248;28;20205;-59
2023/05/02 10:36:22;;;;;;;4.50;3.40;;;19.00;93.80;;;;;;6252615;28;20231;-60
2023/05/02 10:39:27;;;;;;;5.63;2.87;;;18.90;93.90;;;;;;6251998;28;20293;-59
2023/05/02 10:42:30;;;;;;;3.30;2.73;;;18.80;94.40;;;;;;6252873;28;20228;-61
2023/05/02 10:45:36;;;;;;;2.83;2.60;;;18.70;94.60;;;;;;6251594;28;20236;-60
2023/05/02 10:48:39;;;;;;;3.40;3.03;;;18.60;94.50;;;;;;6252277;28;20652;-59
2023/05/02 10:51:43;;;;;;;3.10;2.90;;;18.50;94.70;;;;;;6251963;28;20235;-60
2023/05/02 10:54:46;;;;;;;3.17;2.90;;;18.40;94.60;;;;;;6251957;28;20228;-61
2023/05/02 10:58:21;;;;;;;3.80;3.40;;;18.20;94.80;;;;;;6251491;28;20474;-60
2023/05/02 11:01:38;;;;;;;3.67;2.78;;;18.00;95.40;;;;;;6249077;28;20441;-59
2023/05/02 11:05:09;;;;;;;3.03;2.80;;;18.00;96.00;;;;;;6251154;28;20242;-59
2023/05/02 11:08:36;;;;;;;5.53;3.13;;;17.90;95.90;;;;;;6187596;28;20356;-59
2023/05/02 11:11:40;;;;;;;4.83;3.30;;;18.00;96.10;;;;;;6188699;28;20229;-59
2023/05/02 11:14:48;;;;;;;2.60;2.40;;;18.10;96.70;;;;;;6227304;28;20239;-59
2023/05/02 11:18:05;;;;;;;2.73;2.53;;;17.90;96.10;;;;;;6249940;28;20496;-58
2023/05/02 11:21:28;;;;;;;3.30;3.00;;;17.80;96.40;;;;;;6236562;28;20510;-59
2023/05/02 11:24:38;;;;;;;3.97;3.23;;;17.70;97.00;;;;;;6233421;28;20475;-59
2023/05/02 11:27:43;;;;;;;3.60;2.83;;;17.70;97.20;;;;;;6250906;28;20531;-60
2023/05/02 11:30:47;;;;;;;2.60;2.40;;;17.60;97.70;;;;;;6250898;28;20486;-59
2023/05/02 11:33:57;;;;;;;2.60;2.40;;;17.50;97.50;;;;;;6250507;28;20236;-60
2023/05/02 11:37:00;;;;;;;3.50;3.20;;;17.40;97.30;;;;;;6251153;28;20792;-59
2023/05/02 11:40:21;;;;;;;3.43;2.90;;;17.30;97.40;;;;;;6250386;28;20475;-60
2023/05/02 11:43:26;;;;;;;3.40;3.10;;;17.30;97.90;;;;;;6251019;28;20478;-59
2023/05/02 11:46:32;;;;;;;3.30;2.40;;;17.30;98.40;;;;;;6244744;28;20590;-59
2023/05/02 11:49:38;;;;;;;2.47;2.30;;;17.40;98.60;;;;;;6243482;28;20471;-59
2023/05/02 11:52:43;;;;;;;2.90;2.70;;;17.50;98.50;;;;;;6225793;28;20478;-59
2023/05/02 11:55:48;;;;;;;3.47;2.40;;;17.60;98.80;;;;;;6243387;28;20486;-61
2023/05/02 11:58:59;;;;;;;2.63;2.43;;;17.80;98.50;;;;;;6250344;28;20482;-59
2023/05/02 12:02:03;;;;;;;2.70;2.50;;;17.90;97.40;;;;;;6250179;28;20521;-59
2023/05/02 12:05:09;;;;;;;2.30;2.17;;;17.90;97.10;;;;;;6226447;28;20558;-58
2023/05/02 12:08:22;;;;;;;3.67;2.43;;;17.90;97.00;;;;;;6226016;28;20778;-59
2023/05/02 12:11:26;;;;;;;2.90;2.53;;;17.80;97.10;;;;;;6225543;28;20559;-59
2023/05/02 12:14:32;;;;;;;2.87;2.67;;;17.70;97.20;;;;;;6250207;28;20482;-60
2023/05/02 12:17:40;;;;;;;2.60;2.40;;;17.60;97.40;;;;;;6249932;28;20955;-60
2023/05/02 12:20:46;;;;;;;2.80;2.60;;;17.50;97.40;;;;;;6250134;28;20789;-59
2023/05/02 12:23:49;;;;;;;3.13;2.93;;;17.50;98.10;;;;;;6249532;28;20502;-59
2023/05/02 12:27:09;;;;;;;3.93;3.53;;;17.40;98.10;;;;;;6249979;28;20475;-60
2023/05/02 12:30:25;;;;;;;2.93;2.70;;;17.30;98.20;;;;;;6248388;28;20475;-60
2023/05/02 12:33:29;;;;;;;3.27;3.07;;;17.20;98.40;;;;;;6249972;28;20475;-59
2023/05/02 12:36:34;;;;;;;3.07;2.40;;;17.10;98.40;;;;;;6250049;28;20471;-59
2023/05/02 12:39:39;;;;;;;2.87;2.67;;;16.90;98.90;;;;;;6249452;28;20475;-59
2023/05/02 12:42:42;;;;;;;3.47;3.03;;;16.80;99.30;;;;;;6249620;28;20974;-59
2023/05/02 12:45:47;;;;;;;3.30;2.73;;;16.80;99.90;;;;;;6249602;28;20510;-59
2023/05/02 12:49:02;;;;;;;3.30;2.87;;;16.70;99.90;;;;;;6249548;28;20696;-61
2023/05/02 12:52:06;;;;;;;3.33;2.57;;;16.60;99.90;;;;;;6248455;28;20809;-61
2023/05/02 12:55:16;;;;;;;3.40;3.10;;;16.60;99.90;;;;;;6249392;28;20475;-60
2023/05/02 12:58:20;;;;;;;2.93;2.70;;;16.50;99.90;;;;;;6249479;28;20486;-60
2023/05/02 13:01:23;;;;;;;3.17;2.70;;;16.60;99.90;;;;;;6248924;28;20474;-61
2023/05/02 13:04:36;;;;;;;2.87;2.67;;;16.50;99.90;;;;;;6249124;28;20475;-61
2023/05/02 13:07:40;;;;;;;3.50;3.10;;;16.50;99.90;;;;;;6249173;28;20533;-60
2023/05/02 13:10:44;;;;;;;3.03;2.83;;;16.40;99.90;;;;;;6229863;28;20460;-61
2023/05/02 13:13:47;;;;;;;3.37;3.10;;;16.30;99.90;;;;;;6243070;28;20565;-61
2023/05/02 13:16:52;;;;;;;4.07;2.87;;;16.20;99.90;;;;;;6249538;28;20467;-61
2023/05/02 13:19:55;;;;;;;3.20;3.00;;;16.10;99.90;;;;;;6249024;28;20467;-61
2023/05/02 13:23:05;;;;;;;2.93;2.70;;;16.20;99.90;;;;;;6248979;28;20478;-61
2023/05/02 13:26:08;;;;;;;2.60;2.40;;;16.20;99.90;;;;;;6249052;28;20479;-60
2023/05/02 13:29:11;;;;;;;2.40;2.20;;;16.20;99.90;;;;;;6248710;28;20482;-60
2023/05/02 13:32:15;;;;;;;2.20;2.00;;;16.40;99.90;;;;;;6248558;28;20475;-60
2023/05/02 13:35:18;;;;;;;2.63;2.00;;;16.50;99.90;;;;;;6244623;28;20471;-60
2023/05/02 13:38:23;;;;;;;2.23;2.10;;;16.60;99.90;;;;;;6253637;28;20478;-60
2023/05/02 13:41:26;;;;;;;2.30;2.10;;;16.70;99.90;;;;;;6253585;28;20870;-59
2023/05/02 13:44:30;;;;;;;1.73;1.63;;;16.80;99.90;;;;;;6247799;28;20501;-58
2023/05/02 13:47:33;;;;;;;2.23;2.03;;;16.90;99.90;;;;;;6253186;28;20494;-58
2023/05/02 13:50:37;;;;;;;1.80;1.70;;;17.00;99.90;;;;;;6253644;28;21016;-58
2023/05/02 13:53:42;;;;;;;2.07;1.97;;;17.10;99.90;;;;;;6250714;28;20846;-58
2023/05/02 13:56:45;;;;;;;1.97;1.87;;;17.10;99.90;;;;;;6253206;28;20490;-59
2023/05/02 13:59:48;;;;;;;2.57;2.37;;;17.10;99.90;;;;;;6249733;28;20468;-58
2023/05/02 14:02:51;;;;;;;2.57;1.57;;;16.90;99.90;;;;;;6242677;28;20487;-58
2023/05/02 14:05:55;;;;;;;2.23;1.90;;;16.80;99.90;;;;;;6239927;28;20480;-58
2023/05/02 14:08:59;;;;;;;2.53;1.67;;;16.70;99.90;;;;;;6241974;28;20486;-58
2023/05/02 14:12:03;;;;;;;2.80;1.40;;;16.70;99.90;;;;;;6231944;28;20767;-58
2023/05/02 14:15:07;;;;;;;1.60;1.50;;;16.70;99.90;;;;;;6252921;28;20463;-59
2023/05/02 14:18:10;;;;;;;1.83;1.70;;;16.60;99.90;;;;;;6252240;28;20444;-58
2023/05/02 14:21:13;;;;;;;1.30;1.20;;;16.70;99.90;;;;;;6244660;28;20458;-58
2023/05/02 14:24:18;;;;;;;2.13;1.93;;;16.70;99.90;;;;;;6249412;28;20958;-57
2023/05/02 14:27:21;;;;;;;1.60;1.50;;;16.70;99.90;;;;;;6230908;28;20782;-59
2023/05/02 14:30:25;;;;;;;1.27;1.17;;;16.70;99.90;;;;;;6227804;28;20483;-60
2023/05/02 14:33:28;;;;;;;1.97;1.70;;;16.70;99.90;;;;;;6227712;28;20479;-60
2023/05/02 14:36:31;;;;;;;1.87;1.73;;;16.70;99.90;;;;;;6223422;28;20467;-58
2023/05/02 14:39:36;;;;;;;1.47;1.20;;;16.70;99.90;;;;;;6227148;28;20782;-59
2023/05/02 14:42:39;;;;;;;1.70;1.13;;;16.70;99.90;;;;;;6228142;28;20463;-60
2023/05/02 14:45:42;;;;;;;1.00;0.90;;;16.60;99.90;;;;;;6246423;28;20478;-60
2023/05/02 14:48:45;;;;;;;1.60;1.50;;;16.60;99.90;;;;;;6252153;28;20505;-59
2023/05/02 14:51:49;;;;;;;1.77;1.67;;;16.60;99.90;;;;;;6252151;28;20471;-59
2023/05/02 14:54:53;;;;;;;1.80;1.70;;;16.50;99.90;;;;;;6251804;28;20482;-59
2023/05/02 14:57:57;;;;;;;1.60;1.50;;;16.40;99.90;;;;;;6251683;28;20512;-60
2023/05/02 15:01:00;;;;;;;2.13;1.20;;;16.30;99.90;;;;;;6251219;28;20536;-61
2023/05/02 15:04:03;;;;;;;1.80;1.10;;;16.20;99.90;;;;;;6251201;28;20467;-60
2023/05/02 15:07:09;;;;;;;2.10;1.17;;;16.20;99.90;;;;;;6245143;28;20502;-59
2023/05/02 15:10:14;;;;;;;2.17;1.70;;;16.10;99.90;;;;;;6236805;28;20468;-59
2023/05/02 15:13:17;;;;;;;1.90;1.50;;;16.00;99.90;;;;;;6241134;28;20935;-59
2023/05/02 15:16:20;;;;;;;1.63;1.33;;;15.90;99.90;;;;;;6251602;28;20486;-60
2023/05/02 15:19:24;;;;;;;2.73;1.80;;;15.80;99.90;;;;;;6251033;28;20558;-61
2023/05/02 15:22:27;;;;;;;1.30;1.20;;;15.70;99.90;;;;;;6227629;28;20830;-59
2023/05/02 15:25:31;;;;;;;1.33;1.23;;;15.70;99.90;;;;;;6226825;28;20487;-60
2023/05/02 15:28:34;;;;;;;1.37;1.27;;;15.60;99.90;;;;;;6226737;28;20472;-59
2023/05/02 15:31:38;;;;;;;1.73;1.60;;;15.60;99.90;;;;;;6236771;28;20480;-59
2023/05/02 15:34:41;;;;;;;1.20;1.00;;;15.50;99.90;;;;;;6226058;28;20801;-60
2023/05/02 15:37:44;;;;;;;1.23;1.13;;;15.40;99.90;;;;;;6226529;28;20463;-59
2023/05/02 15:40:55;;;;;;;1.67;1.53;;;15.30;99.90;;;;;;6226150;28;20483;-61
2023/05/02 15:43:58;;;;;;;0.87;0.87;;;15.20;99.90;;;;;;6230407;28;20574;-61
2023/05/02 15:47:02;;;;;;;0.97;0.87;;;15.20;99.90;;;;;;6240512;28;20495;-60
2023/05/02 15:50:06;;;;;;;1.13;1.13;;;15.30;99.90;;;;;;6250092;28;20474;-60
2023/05/02 15:53:09;;;;;;;1.60;1.30;;;15.20;99.90;;;;;;6238785;28;20467;-61
2023/05/02 15:56:14;;;;;;;1.93;1.83;;;15.20;99.90;;;;;;6233875;28;20472;-61
2023/05/02 15:59:17;;;;;;;1.60;1.50;;;15.20;99.90;;;;;;6226102;28;20518;-60
2023/05/02 16:02:20;;;;;;;2.20;2.00;;;15.30;99.90;;;;;;6240346;28;20482;-60